• Join FlightAware (Why Join?)
  • Login
  • US Flag 
02:53AM EDT


 

Airport Tracker/Info


-or-


 

Live Flight TrackerFlight Track Log ✈ EGF4474 ✈ 22-May-2012 ✈ KRDU - KLGA

Flight Track Log - Related Links

Times and Time Zones

All times are in EDT time to prevent confusion due to time zone crossing. See the EGF4474 flight status page for this flight to view local times or setup timezone preferences in your user account.

Time Position Orientation Groundspeed Altitude Reporting Facility
EDT Latitude Longitude Course Direction KTS MPH feet Rate Location/Type
02:19PM 35.9193 -78.7478 227° Southwest  Level FlightAware Approximate
02:20PM 35.8772 -78.8039 346° North 157 181 800  Level Washington Center
02:25PM 35.9911 -78.8394 41° Northeast 304 350 11,300 1,860 Climbing Washington Center
02:26PM 36.0619 -78.7628 43° Northeast 311 358 12,000 420 Climbing Washington Center
02:27PM 36.1244 -78.6906 43° Northeast 351 404 12,200 1,080 Climbing Washington Center
02:28PM 36.2189 -78.5811 33° Northeast 381 438 14,200 1,740 Climbing Washington Center
02:29PM 36.2978 -78.5169 33° Northeast 376 433 15,800 1,680 Climbing Washington Center
02:30PM 36.3933 -78.4406 35° Northeast 371 427 17,600 1,620 Climbing Washington Center
02:31PM 36.4700 -78.3736 47° Northeast 371 427 19,100 1,620 Climbing Washington Center
02:32PM 36.5411 -78.2781 46° Northeast 371 427 20,800 1,560 Climbing Washington Center
02:33PM 36.6164 -78.1797 49° Northeast 385 443 22,200 1,260 Climbing Washington Center
02:34PM 36.6894 -78.0733 50° Northeast 390 449 23,400 1,200 Climbing Washington Center
02:35PM 36.7628 -77.9642 52° Northeast 395 455 24,600 840 Climbing Washington Center
02:36PM 36.8336 -77.8494 48° Northeast 405 466 25,200 540 Climbing Washington Center
02:37PM 36.9172 -77.7350 51° Northeast 424 488 25,700 540 Climbing Washington Center
02:38PM 36.9964 -77.6125 50° Northeast 438 504 26,300 480 Climbing Washington Center
02:39PM 37.0778 -77.4922 50° Northeast 443 510 26,800 300 Climbing Washington Center
02:40PM 37.1694 -77.3564 50° Northeast 452 520 27,000 60 Climbing Washington Center
02:41PM 37.2506 -77.2331 47° Northeast 457 526 27,000  Level Washington Center
02:42PM 37.3397 -77.1122 33° Northeast 464 534 27,000  Level Washington Center
02:43PM 37.4514 -77.0203 29° Northeast 475 547 27,000  Level Washington Center
02:44PM 37.5567 -76.9461 36° Northeast 480 552 27,000  Level Washington Center
02:45PM 37.6619 -76.8483 44° Northeast 472 543 27,000  Level Washington Center
02:46PM 37.7506 -76.7394 27° Northeast 457 526 27,000  Level Washington Center
02:47PM 37.8639 -76.6650 25° Northeast 446 513 27,000  Level Washington Center
02:48PM 37.9750 -76.5981 21° North 441 507 27,000  Level Washington Center
02:49PM 38.0903 -76.5414 North 436 502 27,000  Level Washington Center
02:50PM 38.2111 -76.5350 360° North 428 493 27,000  Level Washington Center
02:51PM 38.3447 -76.5342 15° North 434 499 27,000  Level Washington Center
02:52PM 38.4617 -76.4933 26° Northeast 434 499 27,000  Level Washington Center
02:53PM 38.5686 -76.4256 51° Northeast 418 481 27,000  Level Washington Center
02:54PM 38.6444 -76.3067 54° Northeast 411 473 27,000  Level Washington Center
02:55PM 38.7158 -76.1822 54° Northeast 411 473 27,000  Level Washington Center
02:56PM 38.7872 -76.0578 52° Northeast 425 489 27,000  Level Washington Center
02:57PM 38.8628 -75.9328 53° Northeast 437 503 27,000 -60 Level Washington Center
02:58PM 38.9381 -75.8050 39° Northeast 443 510 26,900  Descending Washington Center
02:59PM 39.0342 -75.7039 36° Northeast 443 510 27,000 -300 Climbing Washington Center
03:00PM 39.1342 -75.6103 36° Northeast 437 503 26,300 -1,500 Descending Washington Center
03:01PM 39.2322 -75.5167 35° Northeast 443 510 24,000 -1,620 Descending Washington Center
03:02PM 39.3281 -75.4306 33° Northeast 429 494 23,100 -1,560 Descending Washington Center
03:03PM 39.4258 -75.3472 34° Northeast 423 487 20,900 -2,280 Descending Washington Center
03:04PM 39.5172 -75.2661 36° Northeast 417 480 18,600 -1,680 Descending Washington Center
03:05PM 39.6025 -75.1850 36° Northeast 398 458 17,600 -840 Descending Washington Center
03:06PM 39.6833 -75.1089 34° Northeast 398 458 16,900 -1,140 Descending Washington Center
03:07PM 39.7789 -75.0244 33° Northeast 386 444 15,400 -1,440 Descending Washington Center
03:08PM 39.8556 -74.9592 37° Northeast 373 429 14,100 -1,440 Descending Washington Center
03:09PM 39.9667 -74.8500 49° Northeast 358 412 12,300 -1,380 Descending New York TRACON
03:10PM 40.0333 -74.7500 49° Northeast 356 410 11,100 -1,200 Descending New York TRACON
03:11PM 40.1000 -74.6500 52° Northeast 349 402 10,000 -600 Descending New York TRACON
03:12PM 40.1500 -74.5667 44° Northeast 343 395 10,000  Level New York TRACON
03:13PM 40.2167 -74.4833 49° Northeast 343 395 10,000  Level New York TRACON
03:14PM 40.2833 -74.3833 37° Northeast 346 398 10,000 -120 Level New York TRACON
03:15PM 40.3500 -74.3167 52° Northeast 299 344 9,800 -1,020 Descending New York TRACON
03:16PM 40.4000 -74.2333 37° Northeast 277 319 8,000 -1,800 Descending New York TRACON
03:17PM 40.4667 -74.1667 37° Northeast 265 305 6,100 -1,440 Descending New York TRACON
03:18PM 40.5167 -74.1167 45° Northeast 251 289 5,000 -720 Descending New York TRACON
03:19PM 40.5667 -74.0500 37° Northeast 243 280 4,700 -1,200 Descending New York TRACON
03:20PM 40.6167 -74.0000 37° Northeast 211 243 2,700 -2,040 Descending New York TRACON